Terminal Aerodrome Forecast
Issued by NWS Cleveland, OH

Home | Current Version | Previous Version | Graphics & Text | Print | Product List | Glossary On
Versions: 1 2 3 4 5 6 7 8 9 10 11 12 13 14 15 16 17 18 19 20 21
000
FTUS41 KCLE 261100
TAFCAK
TAF
KCAK 261131Z 2612/2712 03012KT 1 1/2SM -SN BR OVC020
      TEMPO 2612/2614 3/4SM -SN BR VV009
     FM261400 03012KT 3SM -SN BR OVC020
     FM262200 36010KT 6SM -SN OVC025
     FM270200 36006KT P6SM VCSH OVC015=

USA.gov is the U.S. government's official web portal to all federal, state and local government web resources and services.